This is the latest recevied weather packets stored in our database for station/object W1QED. If no packets are shown the sender has not sent any weather packets the latest 1 day(s).
| Time | Temp. | Humidity | Pressure | Rain* | Wind** | Luminosity | Snow |
|---|---|---|---|---|---|---|---|
| 1777995649 | 24.44° C | 31% | 1008.6 hPa | 0 mm | 3.58 m/s, 250° | - | - |
| 1777995347 | 24.44° C | 33% | 1008.6 hPa | 0 mm | 3.13 m/s, 236° | - | - |
| 1777995106 | 23.89° C | 33% | 1008.6 hPa | 0 mm | 2.24 m/s, 245° | - | - |
| 1777994744 | 23.89° C | 34% | 1008.7 hPa | 0 mm | 1.79 m/s, 224° | - | - |
| 1777994442 | 23.33° C | 36% | 1009 hPa | 0 mm | 2.24 m/s, 250° | - | - |
| 1777994141 | 23.33° C | 38% | 1009 hPa | 0 mm | 1.79 m/s, 252° | - | - |
| 1777993837 | 22.78° C | 38% | 1009.1 hPa | 0 mm | 1.79 m/s, 242° | - | - |
| 1777993536 | 22.78° C | 36% | 1009.1 hPa | 0 mm | 3.58 m/s, 266° | - | - |
| 1777993235 | 22.22° C | 37% | 1009.2 hPa | 0 mm | 3.58 m/s, 184° | - | - |
| 1777992934 | 22.22° C | 38% | 1009.1 hPa | 0 mm | 4.47 m/s, 229° | - | - |
| 1777992632 | 22.22° C | 39% | 1008.9 hPa | 0 mm | 2.68 m/s, 250° | - | - |
| 1777992331 | 21.67° C | 38% | 1009 hPa | 0 mm | 2.24 m/s, 190° | - | - |
| 1777992028 | 21.67° C | 38% | 1009 hPa | 0 mm | 3.13 m/s, 229° | - | - |
| 1777991727 | 21.67° C | 39% | 1009 hPa | 0 mm | 2.68 m/s, 276° | - | - |
| 1777991487 | 21.11° C | 41% | 1009.1 hPa | 0 mm | 3.13 m/s, 251° | - | - |
| 1777991124 | 21.11° C | 41% | 1009.2 hPa | 0 mm | 2.24 m/s, 211° | - | - |
| 1777990824 | 20.56° C | 41% | 1009.3 hPa | 0 mm | 1.79 m/s, 255° | - | - |
| 1777990523 | 20.56° C | 41% | 1009.2 hPa | 0 mm | 3.13 m/s, 257° | - | - |
| 1777990220 | 20.56° C | 40% | 1009.3 hPa | 0 mm | 3.58 m/s, 248° | - | - |
| 1777989918 | 20° C | 44% | 1009.3 hPa | 0 mm | 2.24 m/s, 233° | - | - |
| 1777989620 | 20° C | 41% | 1009.3 hPa | 0 mm | 4.47 m/s, 179° | - | - |
| 1777989317 | 20° C | 42% | 1009.3 hPa | 0 mm | 3.13 m/s, 226° | - | - |
| 1777989016 | 20° C | 42% | 1009.2 hPa | 0 mm | 4.02 m/s, 252° | - | - |
| 1777988716 | 20° C | 42% | 1009.1 hPa | 0 mm | 4.02 m/s, 185° | - | - |
| 1777988415 | 20° C | 41% | 1009 hPa | 0 mm | 3.58 m/s, 252° | - | - |
* Rain latest hour (hover to see other rain measurements)
** Current wind speed in m/s (hover to see current wind gust speed)